createdAt,value
2023-01-26T00:01:32.725Z,5.43
2023-01-26T00:04:00.185Z,5.28
2023-01-26T00:06:27.712Z,5.10
2023-01-26T00:08:59.430Z,5.15
2023-01-26T00:11:29.330Z,4.40
2023-01-26T00:13:58.708Z,4.93
2023-01-26T00:16:27.417Z,4.72
2023-01-26T00:18:55.018Z,4.78
2023-01-26T00:21:24.409Z,4.45
2023-01-26T00:23:52.982Z,4.20
2023-01-26T00:26:23.879Z,4.03
2023-01-26T00:28:52.118Z,4.18
2023-01-26T00:31:25.642Z,4.15
2023-01-26T00:33:55.164Z,4.28
2023-01-26T00:36:23.063Z,4.45
2023-01-26T00:38:50.526Z,3.20
2023-01-26T00:41:36.592Z,4.55
2023-01-26T00:44:04.167Z,3.92
2023-01-26T00:46:31.783Z,3.90
2023-01-26T00:49:01.128Z,4.05
2023-01-26T00:51:28.692Z,3.72
2023-01-26T00:53:57.343Z,4.47
2023-01-26T00:56:27.926Z,4.40
2023-01-26T00:58:55.615Z,4.32
2023-01-26T01:01:23.245Z,4.28
2023-01-26T01:03:52.127Z,4.25
2023-01-26T01:06:19.585Z,4.15
2023-01-26T01:08:47.309Z,3.90
2023-01-26T01:11:15.072Z,5.00
2023-01-26T01:13:42.569Z,4.80
2023-01-26T01:16:12.741Z,4.60
2023-01-26T01:18:40.761Z,5.00
2023-01-26T01:21:12.585Z,5.40
2023-01-26T01:23:40.429Z,5.18
2023-01-26T01:26:08.989Z,5.07
2023-01-26T01:28:37.387Z,4.80
2023-01-26T01:33:33.378Z,5.53
2023-01-26T01:36:03.297Z,5.63
2023-01-26T01:38:31.260Z,6.20
2023-01-26T01:40:59.212Z,5.88
2023-01-26T01:43:27.944Z,7.18
2023-01-26T01:45:56.044Z,7.80
2023-01-26T01:51:37.232Z,6.97
2023-01-26T01:54:13.890Z,8.52
2023-01-26T01:56:48.344Z,9.07
2023-01-26T01:59:20.598Z,9.07
2023-01-26T02:01:51.964Z,8.88
2023-01-26T02:04:21.474Z,8.23
2023-01-26T02:06:51.751Z,8.98
2023-01-26T02:09:44.405Z,9.82
2023-01-26T02:12:14.871Z,8.55
2023-01-26T02:14:42.619Z,8.95
2023-01-26T02:17:10.505Z,8.05
2023-01-26T02:19:57.714Z,10.05
2023-01-26T02:25:07.684Z,9.50
2023-01-26T02:27:35.259Z,9.93
2023-01-26T02:30:05.018Z,9.80
2023-01-26T02:32:33.199Z,10.10
2023-01-26T02:35:00.953Z,11.35
2023-01-26T02:37:28.528Z,11.07
2023-01-26T02:40:01.816Z,11.18
2023-01-26T02:42:38.543Z,11.38
2023-01-26T02:45:07.089Z,10.20
2023-01-26T02:47:34.810Z,11.32
2023-01-26T02:50:05.334Z,11.40
2023-01-26T02:52:33.776Z,12.30
2023-01-26T02:55:30.805Z,11.40
2023-01-26T02:58:04.941Z,12.07
2023-01-26T03:00:41.921Z,11.32
2023-01-26T03:03:26.613Z,11.85
2023-01-26T03:05:54.212Z,11.82
2023-01-26T03:08:21.714Z,12.35
2023-01-26T03:10:49.150Z,11.05
2023-01-26T03:13:18.245Z,12.23
2023-01-26T03:15:52.742Z,12.43
2023-01-26T03:18:42.175Z,12.40
2023-01-26T03:21:35.158Z,11.98
2023-01-26T03:24:21.610Z,12.85
2023-01-26T03:27:08.549Z,11.73
2023-01-26T03:29:36.745Z,12.23
2023-01-26T03:32:04.396Z,12.18
2023-01-26T03:34:32.301Z,13.25
2023-01-26T03:37:00.304Z,13.23
2023-01-26T03:39:53.603Z,12.35
2023-01-26T03:42:40.046Z,12.23
2023-01-26T03:45:26.489Z,12.57
2023-01-26T03:48:21.048Z,12.57
2023-01-26T03:51:07.047Z,12.82
2023-01-26T03:53:53.074Z,13.13
2023-01-26T03:56:24.537Z,12.45
2023-01-26T03:59:12.244Z,13.10
2023-01-26T04:02:04.154Z,12.77
2023-01-26T04:04:51.609Z,12.88
2023-01-26T04:07:40.464Z,13.05
2023-01-26T04:10:08.710Z,13.57
2023-01-26T04:12:36.454Z,13.25
2023-01-26T04:15:33.033Z,12.60
2023-01-26T04:18:25.593Z,11.63
2023-01-26T04:21:11.912Z,11.88
2023-01-26T04:23:41.830Z,12.18
2023-01-26T04:26:09.713Z,12.20
2023-01-26T04:28:38.267Z,12.10
2023-01-26T04:31:06.455Z,12.40
2023-01-26T04:33:36.887Z,10.07
2023-01-26T04:36:07.149Z,10.68
2023-01-26T04:38:37.494Z,12.02
2023-01-26T04:41:05.238Z,11.40
2023-01-26T04:43:39.196Z,11.13
2023-01-26T04:46:08.456Z,10.68
2023-01-26T04:48:38.533Z,10.23
2023-01-26T04:51:11.232Z,11.45
2023-01-26T04:53:39.310Z,10.05
2023-01-26T04:56:09.726Z,10.85
2023-01-26T04:58:37.247Z,10.07
2023-01-26T05:01:04.770Z,9.55
2023-01-26T05:03:32.849Z,10.23
2023-01-26T05:06:00.507Z,9.32
2023-01-26T05:08:27.983Z,9.93
2023-01-26T05:10:55.524Z,10.02
2023-01-26T05:13:26.314Z,8.80
2023-01-26T05:16:06.131Z,8.60
2023-01-26T05:18:54.107Z,8.55
2023-01-26T05:21:40.343Z,9.17
2023-01-26T05:24:08.540Z,9.73
2023-01-26T05:27:23.713Z,8.20
2023-01-26T05:30:01.288Z,8.80
2023-01-26T05:32:31.852Z,7.95
2023-01-26T05:34:59.543Z,8.73
2023-01-26T05:37:28.543Z,8.68
2023-01-26T05:39:59.564Z,7.93
2023-01-26T05:42:27.524Z,8.45
2023-01-26T05:45:00.862Z,8.32
2023-01-26T05:47:29.756Z,7.63
2023-01-26T05:49:58.380Z,8.30
2023-01-26T05:52:29.216Z,8.60
2023-01-26T05:54:56.776Z,8.60
2023-01-26T05:57:25.189Z,8.02
2023-01-26T06:00:00.295Z,7.38
2023-01-26T06:02:28.039Z,7.10
2023-01-26T06:04:56.011Z,6.47
2023-01-26T06:07:23.876Z,6.93
2023-01-26T06:10:06.408Z,6.68
2023-01-26T06:12:52.251Z,6.25
2023-01-26T06:15:39.960Z,7.60
2023-01-26T06:18:08.273Z,7.30
2023-01-26T06:20:37.217Z,6.90
2023-01-26T06:23:11.681Z,6.40
2023-01-26T06:25:39.881Z,5.70
2023-01-26T06:28:08.172Z,6.53
2023-01-26T06:30:36.285Z,7.00
2023-01-26T06:33:08.015Z,7.05
2023-01-26T06:35:38.037Z,6.80
2023-01-26T06:38:10.472Z,8.10
2023-01-26T06:40:38.011Z,7.45
2023-01-26T06:43:06.809Z,7.75
2023-01-26T06:45:37.484Z,7.78
2023-01-26T06:48:05.231Z,8.25
2023-01-26T06:50:36.727Z,7.32
2023-01-26T06:53:26.536Z,6.88
2023-01-26T06:56:12.826Z,8.00
2023-01-26T06:58:55.644Z,7.63
2023-01-26T07:01:44.377Z,7.40
2023-01-26T07:04:11.956Z,7.30
2023-01-26T07:06:39.399Z,7.53
2023-01-26T07:09:06.969Z,7.22
2023-01-26T07:11:34.404Z,7.53
2023-01-26T07:14:01.906Z,7.78
2023-01-26T07:16:31.944Z,6.65
2023-01-26T07:19:01.280Z,6.50
2023-01-26T07:21:28.962Z,6.90
2023-01-26T07:23:56.620Z,7.30
2023-01-26T07:26:24.215Z,7.47
2023-01-26T07:28:51.696Z,6.82
2023-01-26T07:31:19.392Z,7.35
2023-01-26T07:33:46.902Z,7.10
2023-01-26T07:36:14.570Z,6.78
2023-01-26T07:38:42.111Z,7.32
2023-01-26T07:41:11.857Z,7.10
2023-01-26T07:43:40.306Z,6.97
2023-01-26T07:46:11.144Z,7.10
2023-01-26T07:53:39.541Z,7.40
2023-01-26T07:56:16.026Z,8.10
2023-01-26T07:58:43.514Z,7.85
2023-01-26T08:01:15.060Z,7.43
2023-01-26T08:03:45.428Z,7.95
2023-01-26T08:06:14.706Z,8.23
2023-01-26T08:08:43.288Z,8.32
2023-01-26T08:11:11.941Z,7.90
2023-01-26T08:13:39.444Z,8.07
2023-01-26T08:16:12.678Z,7.93
2023-01-26T08:18:42.253Z,7.70
2023-01-26T08:21:11.174Z,6.38
2023-01-26T08:23:41.288Z,7.43
2023-01-26T08:26:11.485Z,6.55
2023-01-26T08:28:39.404Z,6.78
2023-01-26T08:31:12.845Z,6.53
2023-01-26T08:33:42.709Z,6.35
2023-01-26T08:36:15.265Z,6.22
2023-01-26T08:38:43.816Z,7.72
2023-01-26T08:41:12.333Z,7.60
2023-01-26T08:43:40.593Z,7.20
2023-01-26T08:46:09.126Z,7.78
2023-01-26T08:48:37.364Z,8.07
2023-01-26T08:51:06.650Z,8.00
2023-01-26T08:53:36.214Z,7.78
2023-01-26T08:56:08.940Z,8.75
2023-01-26T08:58:36.929Z,9.18
2023-01-26T09:01:11.269Z,9.63
2023-01-26T09:03:39.354Z,10.40
2023-01-26T09:06:08.516Z,10.52
2023-01-26T09:08:36.370Z,11.63
2023-01-26T09:11:06.624Z,10.77
2023-01-26T09:13:34.317Z,10.60
2023-01-26T09:16:07.187Z,11.13
2023-01-26T09:18:34.969Z,10.50
2023-01-26T09:21:06.994Z,11.38
2023-01-26T09:23:35.540Z,11.35
2023-01-26T09:26:03.684Z,11.00
2023-01-26T09:31:06.850Z,10.05
2023-01-26T09:33:34.643Z,10.57
2023-01-26T09:36:11.044Z,11.05
2023-01-26T09:38:39.046Z,11.30
2023-01-26T09:41:34.107Z,11.68
2023-01-26T09:44:08.268Z,11.52
2023-01-26T09:46:44.644Z,11.82
2023-01-26T09:49:26.720Z,11.48
2023-01-26T09:52:14.405Z,10.73
2023-01-26T09:54:56.239Z,11.27
2023-01-26T09:57:31.547Z,11.60
2023-01-26T10:00:09.260Z,12.10
2023-01-26T10:03:17.560Z,12.23
2023-01-26T10:06:00.820Z,12.52
2023-01-26T10:08:47.781Z,12.32
2023-01-26T10:11:27.469Z,12.48
2023-01-26T10:14:04.508Z,13.10
2023-01-26T10:16:34.281Z,14.00
2023-01-26T10:19:42.391Z,14.32
2023-01-26T10:22:27.826Z,13.68
2023-01-26T10:24:57.082Z,14.07
2023-01-26T10:27:24.532Z,13.20
2023-01-26T10:29:51.950Z,13.05
2023-01-26T10:32:19.592Z,14.20
2023-01-26T10:34:49.591Z,13.07
2023-01-26T10:37:22.980Z,13.15
2023-01-26T10:40:02.363Z,12.32
2023-01-26T10:42:36.376Z,13.07
2023-01-26T10:45:25.878Z,12.43
2023-01-26T10:48:16.583Z,11.65
2023-01-26T10:50:44.959Z,13.18
2023-01-26T10:53:19.139Z,14.15
2023-01-26T10:56:03.264Z,14.38
2023-01-26T10:58:59.322Z,14.50
2023-01-26T11:01:29.683Z,13.50
2023-01-26T11:04:07.258Z,12.90
2023-01-26T11:06:35.459Z,15.23
2023-01-26T11:09:14.891Z,13.93
2023-01-26T11:11:42.455Z,12.90
2023-01-26T11:14:16.943Z,14.05
2023-01-26T11:16:50.631Z,13.25
2023-01-26T11:19:26.873Z,10.68
2023-01-26T11:21:59.366Z,11.80
2023-01-26T11:24:32.015Z,11.50
2023-01-26T11:27:29.958Z,10.63
2023-01-26T11:30:32.180Z,10.32
2023-01-26T11:33:23.645Z,9.55
2023-01-26T11:36:17.244Z,9.65
2023-01-26T11:39:10.524Z,8.38
2023-01-26T11:42:13.202Z,8.50
2023-01-26T11:44:55.498Z,7.65
2023-01-26T11:47:42.001Z,7.97
2023-01-26T11:50:43.044Z,8.82
2023-01-26T11:53:42.924Z,8.60
2023-01-26T11:56:31.843Z,8.48
2023-01-26T11:59:06.590Z,8.60
2023-01-26T12:01:40.024Z,7.75
2023-01-26T12:04:18.588Z,7.95
2023-01-26T12:06:53.576Z,7.80
2023-01-26T12:09:36.568Z,7.47
2023-01-26T12:12:31.274Z,7.30
2023-01-26T12:15:38.092Z,6.97
2023-01-26T12:18:10.256Z,6.63
2023-01-26T12:20:45.968Z,6.28
2023-01-26T12:23:49.200Z,6.15
2023-01-26T12:26:19.483Z,6.20
2023-01-26T12:29:09.305Z,6.57
2023-01-26T12:32:04.096Z,5.90
2023-01-26T12:34:34.069Z,6.45
2023-01-26T12:37:23.342Z,6.10
2023-01-26T12:40:00.960Z,5.80
2023-01-26T12:42:58.049Z,5.53
2023-01-26T12:45:32.545Z,5.18
2023-01-26T12:48:07.873Z,5.40
2023-01-26T12:50:47.734Z,5.03
2023-01-26T12:53:49.230Z,4.38
2023-01-26T12:56:30.352Z,4.43
2023-01-26T12:58:59.805Z,4.10
2023-01-26T13:01:38.956Z,4.28
2023-01-26T13:04:12.314Z,4.22
2023-01-26T13:06:40.133Z,3.90
2023-01-26T13:09:27.582Z,4.43
2023-01-26T13:11:57.058Z,3.92
2023-01-26T13:14:36.625Z,3.38
2023-01-26T13:17:16.359Z,3.42
2023-01-26T13:19:44.027Z,4.88
2023-01-26T13:22:24.052Z,3.42
2023-01-26T13:24:56.466Z,3.95
2023-01-26T13:28:00.356Z,4.40
2023-01-26T13:30:44.894Z,4.30
2023-01-26T13:33:24.457Z,4.43
2023-01-26T13:35:55.098Z,3.92
2023-01-26T13:38:29.128Z,4.18
2023-01-26T13:40:57.017Z,4.10
2023-01-26T13:43:32.833Z,4.40
2023-01-26T13:46:15.203Z,4.13
2023-01-26T13:48:53.756Z,4.10
2023-01-26T13:51:37.277Z,4.20
2023-01-26T13:54:15.311Z,4.10
2023-01-26T13:59:12.868Z,5.22
2023-01-26T14:01:52.359Z,4.45
2023-01-26T14:04:25.191Z,4.80
2023-01-26T14:07:06.104Z,4.18
2023-01-26T14:09:48.269Z,4.32
2023-01-26T14:12:29.473Z,3.95
2023-01-26T14:15:00.787Z,3.50
2023-01-26T14:17:31.430Z,3.47
2023-01-26T14:20:03.713Z,3.38
2023-01-26T14:22:31.539Z,3.22
2023-01-26T14:24:59.058Z,3.95
2023-01-26T14:27:38.869Z,3.55
2023-01-26T14:30:26.503Z,3.80
2023-01-26T14:33:07.723Z,3.20
2023-01-26T14:35:35.174Z,4.13
2023-01-26T14:38:11.780Z,3.65
2023-01-26T14:40:46.440Z,4.40
2023-01-26T14:43:14.679Z,4.43
2023-01-26T14:46:08.916Z,4.60
2023-01-26T14:48:44.778Z,4.63
2023-01-26T14:51:20.434Z,4.30
2023-01-26T14:53:54.414Z,4.30
2023-01-26T14:56:31.608Z,4.65
2023-01-26T14:58:59.184Z,4.53
2023-01-26T15:01:27.900Z,4.72
2023-01-26T15:04:03.806Z,4.68
2023-01-26T15:06:32.548Z,5.32
2023-01-26T15:09:26.727Z,4.13
2023-01-26T15:12:17.543Z,3.20
2023-01-26T15:14:51.270Z,3.05
2023-01-26T15:17:39.325Z,2.50
2023-01-26T15:20:15.022Z,2.50
2023-01-26T15:22:50.323Z,2.67
2023-01-26T15:25:21.069Z,2.80
2023-01-26T15:27:58.772Z,3.35
2023-01-26T15:32:58.935Z,3.53
2023-01-26T15:35:29.495Z,3.97
2023-01-26T15:38:04.471Z,4.05
2023-01-26T15:40:32.389Z,3.63
2023-01-26T15:43:20.112Z,4.45
2023-01-26T15:45:59.974Z,4.07
2023-01-26T15:48:31.645Z,4.22
2023-01-26T15:50:59.137Z,4.65
2023-01-26T15:53:27.091Z,4.25
2023-01-26T15:55:56.035Z,4.60
2023-01-26T15:58:24.803Z,4.30
2023-01-26T16:00:53.269Z,3.92
2023-01-26T16:03:22.479Z,4.20
2023-01-26T16:05:50.137Z,4.32
2023-01-26T16:08:19.008Z,3.67
2023-01-26T16:10:47.288Z,3.42
2023-01-26T16:15:46.661Z,4.25
2023-01-26T16:18:14.556Z,3.55
2023-01-26T16:20:43.949Z,5.05
2023-01-26T16:23:22.916Z,3.90
2023-01-26T16:25:53.036Z,4.00
2023-01-26T16:28:21.008Z,3.85
2023-01-26T16:30:50.851Z,5.10
2023-01-26T16:33:25.952Z,4.70
2023-01-26T16:35:54.639Z,4.32
2023-01-26T16:38:22.200Z,3.70
2023-01-26T16:40:49.871Z,4.00
2023-01-26T16:43:24.068Z,4.03
2023-01-26T16:45:52.771Z,4.10
2023-01-26T16:48:21.533Z,3.83
2023-01-26T16:50:52.929Z,2.95
2023-01-26T16:53:32.941Z,3.28
2023-01-26T16:56:00.557Z,3.55
2023-01-26T16:58:32.525Z,2.47
2023-01-26T17:01:00.450Z,2.58
2023-01-26T17:03:27.966Z,2.95
2023-01-26T17:05:56.499Z,2.58
2023-01-26T17:08:24.014Z,3.15
2023-01-26T17:11:01.717Z,2.83
2023-01-26T17:13:33.293Z,3.22
2023-01-26T17:16:00.828Z,2.97
2023-01-26T17:18:28.505Z,3.17
2023-01-26T17:21:02.189Z,3.83
2023-01-26T17:23:29.607Z,2.92
2023-01-26T17:26:00.689Z,3.22
2023-01-26T17:28:28.201Z,2.90
2023-01-26T17:30:55.633Z,3.10
2023-01-26T17:33:23.112Z,3.75
2023-01-26T17:36:00.002Z,3.75
2023-01-26T17:38:27.551Z,3.70
2023-01-26T17:40:56.393Z,3.65
2023-01-26T17:43:24.598Z,3.38
2023-01-26T17:48:19.728Z,3.38
2023-01-26T17:50:50.926Z,3.22
2023-01-26T17:53:18.789Z,3.42
2023-01-26T17:55:46.418Z,3.80
2023-01-26T17:58:13.831Z,3.20
2023-01-26T18:00:42.066Z,3.45
2023-01-26T18:03:10.732Z,3.22
2023-01-26T18:05:38.167Z,3.55
2023-01-26T18:08:05.721Z,3.45
2023-01-26T18:10:33.320Z,3.22
2023-01-26T18:13:00.822Z,3.92
2023-01-26T18:15:28.236Z,4.13
2023-01-26T18:17:55.670Z,3.70
2023-01-26T18:20:23.261Z,3.95
2023-01-26T18:22:50.734Z,4.10
2023-01-26T18:25:20.558Z,4.45
2023-01-26T18:27:48.301Z,4.65
2023-01-26T18:30:15.993Z,4.57
2023-01-26T18:32:43.584Z,3.17
2023-01-26T18:35:11.893Z,3.47
2023-01-26T18:37:39.498Z,3.58
2023-01-26T18:40:08.289Z,3.35
2023-01-26T18:42:35.756Z,3.08
2023-01-26T18:45:03.462Z,3.45
2023-01-26T18:47:32.282Z,3.97
2023-01-26T18:49:59.850Z,3.65
2023-01-26T18:52:28.577Z,2.95
2023-01-26T18:54:57.647Z,2.72
2023-01-26T18:57:25.112Z,2.95
2023-01-26T18:59:52.517Z,3.42
2023-01-26T19:02:19.986Z,3.83
2023-01-26T19:04:47.409Z,2.67
2023-01-26T19:07:15.305Z,2.60
2023-01-26T19:09:42.759Z,2.35
2023-01-26T19:12:10.664Z,3.03
2023-01-26T19:14:38.291Z,2.50
2023-01-26T19:17:05.762Z,2.45
2023-01-26T19:19:33.268Z,2.33
2023-01-26T19:22:00.723Z,2.08
2023-01-26T19:24:28.272Z,2.22
2023-01-26T19:26:55.809Z,2.05
2023-01-26T19:29:23.437Z,2.55
2023-01-26T19:31:51.009Z,2.47
2023-01-26T19:34:19.851Z,2.72
2023-01-26T19:36:53.328Z,2.30
2023-01-26T19:39:20.804Z,2.78
2023-01-26T19:41:48.614Z,2.60
2023-01-26T19:44:16.175Z,2.20
2023-01-26T19:46:43.663Z,2.80
2023-01-26T19:49:13.399Z,2.50
2023-01-26T19:51:40.913Z,2.05
2023-01-26T19:54:08.979Z,2.40
2023-01-26T19:59:10.160Z,2.50
2023-01-26T20:01:38.535Z,1.85
2023-01-26T20:06:39.599Z,2.22
2023-01-26T20:09:07.888Z,2.13
2023-01-26T20:11:35.820Z,2.00
2023-01-26T20:14:08.633Z,2.10
2023-01-26T20:16:36.865Z,1.65
2023-01-26T20:21:35.331Z,1.90
2023-01-26T20:24:06.743Z,1.67
2023-01-26T20:26:35.366Z,1.85
2023-01-26T20:29:03.414Z,1.80
2023-01-26T20:31:32.674Z,1.77
2023-01-26T20:34:01.586Z,1.45
2023-01-26T20:36:29.369Z,1.52
2023-01-26T20:38:57.311Z,1.77
2023-01-26T20:41:27.425Z,1.40
2023-01-26T20:44:00.434Z,1.30
2023-01-26T20:46:31.926Z,1.67
2023-01-26T20:48:59.808Z,1.27
2023-01-26T20:51:30.540Z,1.30
2023-01-26T20:53:58.350Z,1.30
2023-01-26T20:56:26.364Z,1.40
2023-01-26T20:58:54.913Z,1.20
2023-01-26T21:01:23.529Z,1.38
2023-01-26T21:03:51.608Z,1.30
2023-01-26T21:06:20.581Z,1.02
2023-01-26T21:08:49.731Z,1.38
2023-01-26T21:11:23.775Z,1.10
2023-01-26T21:13:52.045Z,1.33
2023-01-26T21:16:19.827Z,1.60
2023-01-26T21:18:47.602Z,1.42
2023-01-26T21:21:18.980Z,1.42
2023-01-26T21:23:46.862Z,1.40
2023-01-26T21:26:21.897Z,1.17
2023-01-26T21:28:51.476Z,1.75
2023-01-26T21:31:20.760Z,1.60
2023-01-26T21:33:49.224Z,1.30
2023-01-26T21:36:19.807Z,1.40
2023-01-26T21:38:50.815Z,1.83
2023-01-26T21:41:48.601Z,1.45
2023-01-26T21:46:49.993Z,1.77
2023-01-26T21:49:17.973Z,1.63
2023-01-26T21:52:03.954Z,2.03
2023-01-26T21:54:32.130Z,1.70
2023-01-26T21:59:28.806Z,1.92
2023-01-26T22:01:57.916Z,1.75
2023-01-26T22:04:30.160Z,2.20
2023-01-26T22:06:58.126Z,2.58
2023-01-26T22:09:25.693Z,1.73
2023-01-26T22:11:53.087Z,1.45
2023-01-26T22:14:23.064Z,1.75
2023-01-26T22:16:50.773Z,1.27
2023-01-26T22:19:21.022Z,1.63
2023-01-26T22:21:48.540Z,2.15
2023-01-26T22:24:17.921Z,1.65
2023-01-26T22:26:45.512Z,2.00
2023-01-26T22:29:13.202Z,2.25
2023-01-26T22:31:41.744Z,1.80
2023-01-26T22:34:11.376Z,2.03
2023-01-26T22:36:40.248Z,1.92
2023-01-26T22:39:12.188Z,2.38
2023-01-26T22:41:43.177Z,1.90
2023-01-26T22:44:11.276Z,2.20
2023-01-26T22:49:06.137Z,2.08
2023-01-26T22:51:37.075Z,2.30
2023-01-26T22:54:05.479Z,2.10
2023-01-26T22:56:33.761Z,2.30
2023-01-26T22:59:01.233Z,2.53
2023-01-26T23:01:31.296Z,2.65
2023-01-26T23:03:59.740Z,2.30
2023-01-26T23:06:27.904Z,2.38
2023-01-26T23:11:28.207Z,2.40
2023-01-26T23:13:57.552Z,2.33
2023-01-26T23:16:25.892Z,2.42
2023-01-26T23:18:55.423Z,2.10
2023-01-26T23:21:23.897Z,2.72
2023-01-26T23:23:51.413Z,2.67
2023-01-26T23:26:19.007Z,2.55
2023-01-26T23:28:46.817Z,2.65
2023-01-26T23:31:16.523Z,2.80
2023-01-26T23:33:44.172Z,2.47
2023-01-26T23:36:13.184Z,2.60
2023-01-26T23:38:40.738Z,2.65
2023-01-26T23:41:11.942Z,3.50
2023-01-26T23:43:39.678Z,3.38
2023-01-26T23:46:08.528Z,3.55
2023-01-26T23:48:36.160Z,3.63
2023-01-26T23:51:07.479Z,4.53
2023-01-26T23:53:35.222Z,5.25
2023-01-26T23:56:07.424Z,5.82
2023-01-26T23:58:37.264Z,6.85
